createdAt,value
2023-03-12T00:01:19.932Z,1.18
2023-03-12T00:02:40.872Z,1.05
2023-03-12T00:04:13.495Z,1.23
2023-03-12T00:05:40.421Z,1.08
2023-03-12T00:07:02.767Z,1.34
2023-03-12T00:08:27.452Z,1.31
2023-03-12T00:09:53.309Z,1.16
2023-03-12T00:11:26.688Z,1.12
2023-03-12T00:12:52.037Z,1.32
2023-03-12T00:14:16.511Z,0.97
2023-03-12T00:15:39.776Z,1.07
2023-03-12T00:17:21.698Z,1.19
2023-03-12T00:18:44.357Z,1.25
2023-03-12T00:20:12.784Z,1.23
2023-03-12T00:21:35.309Z,1.32
2023-03-12T00:22:57.732Z,1.28
2023-03-12T00:24:21.722Z,1.31
2023-03-12T00:25:45.536Z,0.98
2023-03-12T00:27:10.832Z,1.29
2023-03-12T00:28:32.832Z,1.30
2023-03-12T00:29:58.194Z,1.21
2023-03-12T00:31:25.045Z,1.30
2023-03-12T00:32:47.120Z,1.26
2023-03-12T00:34:10.791Z,1.30
2023-03-12T00:35:34.407Z,1.29
2023-03-12T00:36:56.675Z,1.30
2023-03-12T00:38:17.931Z,1.22
2023-03-12T00:39:40.099Z,1.29
2023-03-12T00:41:02.219Z,1.29
2023-03-12T00:42:24.163Z,1.26
2023-03-12T00:43:46.608Z,1.14
2023-03-12T00:45:08.828Z,1.27
2023-03-12T00:46:31.300Z,1.30
2023-03-12T00:47:53.504Z,1.22
2023-03-12T00:49:18.735Z,1.28
2023-03-12T00:50:41.693Z,1.12
2023-03-12T00:52:03.933Z,1.14
2023-03-12T00:53:25.140Z,1.20
2023-03-12T00:54:47.608Z,1.31
2023-03-12T00:56:09.320Z,1.22
2023-03-12T00:57:32.070Z,1.28
2023-03-12T00:58:54.476Z,1.27
2023-03-12T01:00:16.296Z,1.29
2023-03-12T01:01:40.071Z,1.25
2023-03-12T01:03:01.432Z,1.21
2023-03-12T01:04:23.971Z,1.26
2023-03-12T01:05:54.183Z,1.22
2023-03-12T01:07:16.625Z,0.96
2023-03-12T01:08:38.942Z,1.27
2023-03-12T01:10:00.545Z,1.25
2023-03-12T01:11:23.177Z,1.19
2023-03-12T01:12:45.793Z,1.26
2023-03-12T01:14:10.039Z,0.90
2023-03-12T01:15:31.657Z,1.07
2023-03-12T01:16:56.776Z,1.26
2023-03-12T01:18:17.893Z,1.23
2023-03-12T01:19:39.884Z,1.25
2023-03-12T01:21:06.781Z,1.10
2023-03-12T01:22:29.502Z,1.26
2023-03-12T01:23:51.711Z,1.20
2023-03-12T01:25:13.017Z,1.19
2023-03-12T01:26:35.247Z,1.25
2023-03-12T01:27:57.658Z,1.25
2023-03-12T01:29:19.231Z,1.13
2023-03-12T01:30:41.742Z,1.24
2023-03-12T01:32:03.972Z,1.16
2023-03-12T01:33:28.842Z,1.21
2023-03-12T01:34:50.492Z,1.24
2023-03-12T01:36:22.694Z,1.22
2023-03-12T01:37:47.049Z,1.08
2023-03-12T01:39:09.386Z,0.91
2023-03-12T01:40:35.161Z,1.14
2023-03-12T01:41:56.498Z,1.12
2023-03-12T01:43:32.742Z,1.11
2023-03-12T01:44:57.347Z,1.23
2023-03-12T01:46:29.853Z,1.21
2023-03-12T01:47:51.902Z,1.21
2023-03-12T01:49:18.575Z,1.24
2023-03-12T01:50:40.961Z,1.19
2023-03-12T01:52:09.650Z,1.23
2023-03-12T01:53:44.026Z,1.16
2023-03-12T01:55:09.511Z,1.23
2023-03-12T01:56:35.660Z,1.21
2023-03-12T01:58:00.029Z,1.16
2023-03-12T01:59:24.548Z,1.19
2023-03-12T02:00:46.306Z,1.22
2023-03-12T02:02:09.722Z,1.17
2023-03-12T02:03:34.160Z,1.22
2023-03-12T02:05:04.744Z,1.21
2023-03-12T02:06:32.568Z,1.17
2023-03-12T02:07:56.355Z,1.15
2023-03-12T02:09:20.791Z,1.21
2023-03-12T02:10:44.127Z,1.21
2023-03-12T02:12:10.073Z,1.13
2023-03-12T02:13:33.254Z,1.20
2023-03-12T02:14:54.674Z,1.16
2023-03-12T02:16:17.015Z,0.91
2023-03-12T02:17:40.891Z,1.06
2023-03-12T02:19:05.113Z,1.18
2023-03-12T02:20:33.333Z,1.19
2023-03-12T02:21:55.631Z,1.09
2023-03-12T02:23:29.254Z,1.17
2023-03-12T02:25:00.094Z,1.16
2023-03-12T02:26:25.933Z,1.16
2023-03-12T02:27:49.233Z,1.17
2023-03-12T02:29:11.714Z,1.13
2023-03-12T02:30:33.971Z,0.97
2023-03-12T02:31:59.350Z,1.17
2023-03-12T02:33:21.741Z,0.82
2023-03-12T02:34:44.359Z,1.18
2023-03-12T02:36:06.648Z,1.20
2023-03-12T02:37:29.218Z,0.98
2023-03-12T02:38:51.786Z,1.17
2023-03-12T02:40:20.149Z,1.18
2023-03-12T02:41:47.121Z,1.23
2023-03-12T02:43:10.697Z,1.14
2023-03-12T02:44:36.607Z,1.17
2023-03-12T02:46:00.978Z,1.18
2023-03-12T02:47:26.489Z,1.20
2023-03-12T02:48:49.820Z,1.23
2023-03-12T02:50:12.470Z,1.23
2023-03-12T02:51:34.820Z,1.23
2023-03-12T02:52:56.130Z,1.22
2023-03-12T02:54:20.019Z,1.22
2023-03-12T02:55:41.128Z,1.20
2023-03-12T02:57:05.116Z,1.27
2023-03-12T02:58:27.375Z,1.03
2023-03-12T02:59:49.668Z,1.22
2023-03-12T03:01:13.635Z,1.27
2023-03-12T03:02:36.140Z,1.29
2023-03-12T03:03:58.472Z,1.28
2023-03-12T03:05:21.764Z,1.27
2023-03-12T03:06:44.632Z,1.19
2023-03-12T03:08:07.832Z,1.28
2023-03-12T03:09:30.122Z,1.27
2023-03-12T03:10:53.545Z,1.29
2023-03-12T03:12:21.724Z,1.26
2023-03-12T03:13:43.846Z,1.29
2023-03-12T03:15:09.823Z,1.28
2023-03-12T03:16:32.278Z,1.13
2023-03-12T03:17:53.359Z,1.09
2023-03-12T03:19:16.229Z,1.10
2023-03-12T03:20:38.809Z,1.07
2023-03-12T03:22:03.420Z,1.06
2023-03-12T03:23:24.750Z,1.22
2023-03-12T03:24:47.674Z,1.10
2023-03-12T03:26:09.229Z,1.29
2023-03-12T03:27:33.630Z,1.05
2023-03-12T03:28:56.487Z,1.10
2023-03-12T03:30:18.433Z,1.17
2023-03-12T03:31:43.749Z,1.08
2023-03-12T03:33:07.999Z,1.31
2023-03-12T03:34:30.437Z,1.20
2023-03-12T03:35:52.028Z,1.21
2023-03-12T03:37:14.416Z,1.03
2023-03-12T03:38:36.007Z,1.26
2023-03-12T03:39:59.215Z,1.21
2023-03-12T03:41:21.164Z,1.30
2023-03-12T03:42:45.051Z,1.11
2023-03-12T03:44:07.987Z,1.29
2023-03-12T03:45:32.269Z,1.25
2023-03-12T03:46:55.586Z,1.28
2023-03-12T03:48:17.869Z,1.29
2023-03-12T03:49:43.065Z,1.29
2023-03-12T03:51:07.962Z,1.10
2023-03-12T03:52:35.416Z,1.21
2023-03-12T03:53:58.610Z,1.12
2023-03-12T03:55:22.473Z,1.25
2023-03-12T03:56:44.310Z,1.26
2023-03-12T03:58:33.038Z,1.23
2023-03-12T03:59:55.330Z,1.23
2023-03-12T04:01:19.592Z,1.23
2023-03-12T04:02:42.574Z,1.21
2023-03-12T04:04:06.032Z,1.28
2023-03-12T04:05:29.775Z,1.21
2023-03-12T04:06:50.894Z,1.27
2023-03-12T04:08:13.453Z,1.25
2023-03-12T04:09:35.691Z,1.27
2023-03-12T04:10:56.974Z,1.27
2023-03-12T04:12:20.185Z,1.28
2023-03-12T04:13:43.544Z,1.22
2023-03-12T04:15:07.680Z,1.09
2023-03-12T04:16:29.246Z,1.27
2023-03-12T04:17:52.660Z,1.08
2023-03-12T04:19:15.458Z,1.28
2023-03-12T04:20:37.974Z,1.34
2023-03-12T04:21:59.689Z,1.36
2023-03-12T04:23:21.875Z,1.38
2023-03-12T04:24:43.435Z,1.40
2023-03-12T04:26:09.261Z,1.45
2023-03-12T04:27:32.343Z,1.47
2023-03-12T04:28:55.177Z,1.48
2023-03-12T04:30:17.249Z,1.53
2023-03-12T04:31:40.338Z,1.57
2023-03-12T04:33:01.428Z,1.61
2023-03-12T04:34:23.829Z,1.65
2023-03-12T04:35:53.117Z,1.69
2023-03-12T04:37:16.501Z,1.72
2023-03-12T04:38:41.352Z,1.62
2023-03-12T04:40:07.599Z,1.80
2023-03-12T04:41:30.407Z,1.84
2023-03-12T04:43:03.172Z,1.87
2023-03-12T04:44:26.523Z,1.55
2023-03-12T04:45:48.735Z,1.88
2023-03-12T04:47:11.116Z,1.85
2023-03-12T04:48:37.161Z,1.94
2023-03-12T04:49:59.531Z,1.92
2023-03-12T04:51:20.861Z,1.59
2023-03-12T04:52:43.380Z,1.93
2023-03-12T04:54:05.508Z,1.92
2023-03-12T04:55:28.674Z,1.84
2023-03-12T04:56:51.402Z,1.89
2023-03-12T04:58:15.166Z,1.88
2023-03-12T04:59:39.514Z,1.88
2023-03-12T05:01:00.689Z,1.87
2023-03-12T05:02:23.182Z,1.85
2023-03-12T05:03:45.599Z,1.91
2023-03-12T05:05:08.457Z,1.89
2023-03-12T05:06:29.992Z,1.93
2023-03-12T05:07:52.760Z,1.97
2023-03-12T05:09:13.912Z,2.01
2023-03-12T05:10:37.340Z,2.03
2023-03-12T05:11:59.445Z,2.03
2023-03-12T05:13:23.052Z,2.01
2023-03-12T05:14:51.016Z,2.02
2023-03-12T05:16:13.875Z,2.02
2023-03-12T05:17:37.884Z,1.97
2023-03-12T05:19:02.491Z,1.97
2023-03-12T05:20:24.731Z,1.95
2023-03-12T05:21:47.567Z,1.94
2023-03-12T05:23:08.777Z,1.78
2023-03-12T05:24:32.434Z,1.90
2023-03-12T05:25:56.972Z,1.93
2023-03-12T05:27:19.611Z,1.88
2023-03-12T05:28:41.873Z,1.90
2023-03-12T05:30:07.588Z,1.87
2023-03-12T05:31:35.431Z,1.89
2023-03-12T05:33:01.382Z,1.81
2023-03-12T05:34:23.719Z,1.67
2023-03-12T05:35:44.889Z,1.55
2023-03-12T05:37:07.179Z,1.88
2023-03-12T05:38:27.780Z,1.85
2023-03-12T05:39:49.750Z,1.79
2023-03-12T05:41:20.329Z,1.85
2023-03-12T05:42:43.164Z,1.83
2023-03-12T05:44:04.618Z,1.86
2023-03-12T05:45:30.668Z,1.82
2023-03-12T05:46:57.223Z,1.85
2023-03-12T05:48:21.895Z,1.79
2023-03-12T05:49:45.436Z,1.84
2023-03-12T05:51:07.750Z,1.86
2023-03-12T05:52:30.176Z,1.86
2023-03-12T05:53:53.644Z,1.92
2023-03-12T05:55:15.775Z,1.77
2023-03-12T05:56:39.515Z,1.92
2023-03-12T05:58:02.623Z,1.88
2023-03-12T05:59:24.896Z,2.01
2023-03-12T06:00:52.648Z,2.05
2023-03-12T06:02:20.274Z,2.07
2023-03-12T06:03:45.654Z,1.89
2023-03-12T06:05:09.349Z,2.09
2023-03-12T06:06:31.718Z,2.09
2023-03-12T06:07:54.698Z,2.11
2023-03-12T06:09:19.245Z,2.18
2023-03-12T06:10:41.962Z,1.99
2023-03-12T06:12:03.384Z,2.15
2023-03-12T06:13:27.665Z,2.09
2023-03-12T06:14:51.489Z,2.24
2023-03-12T06:16:22.099Z,2.29
2023-03-12T06:17:44.872Z,2.23
2023-03-12T06:19:07.832Z,2.34
2023-03-12T06:20:29.191Z,2.36
2023-03-12T06:21:51.932Z,2.28
2023-03-12T06:23:13.295Z,2.39
2023-03-12T06:24:35.512Z,2.45
2023-03-12T06:26:00.330Z,2.44
2023-03-12T06:27:22.902Z,2.46
2023-03-12T06:28:46.173Z,2.52
2023-03-12T06:30:09.762Z,2.59
2023-03-12T06:31:33.578Z,2.65
2023-03-12T06:32:56.215Z,2.68
2023-03-12T06:34:17.194Z,2.63
2023-03-12T06:35:43.145Z,2.75
2023-03-12T06:37:05.340Z,2.78
2023-03-12T06:38:27.764Z,2.88
2023-03-12T06:39:51.428Z,2.89
2023-03-12T06:41:20.542Z,2.89
2023-03-12T06:42:43.002Z,2.88
2023-03-12T06:44:12.815Z,2.73
2023-03-12T06:45:35.231Z,3.10
2023-03-12T06:46:59.235Z,3.19
2023-03-12T06:48:20.201Z,3.29
2023-03-12T06:49:42.532Z,3.36
2023-03-12T06:51:04.382Z,3.53
2023-03-12T06:52:27.172Z,3.63
2023-03-12T06:53:49.247Z,3.65
2023-03-12T06:55:14.476Z,3.88
2023-03-12T06:56:36.691Z,4.02
2023-03-12T06:58:03.313Z,3.94
2023-03-12T06:59:25.634Z,4.31
2023-03-12T07:00:49.441Z,4.18
2023-03-12T07:02:18.335Z,4.58
2023-03-12T07:03:40.328Z,4.53
2023-03-12T07:05:03.121Z,4.88
2023-03-12T07:06:25.870Z,4.94
2023-03-12T07:07:48.314Z,4.97
2023-03-12T07:09:13.262Z,5.09
2023-03-12T07:10:44.174Z,5.29
2023-03-12T07:12:06.948Z,5.24
2023-03-12T07:13:34.616Z,5.66
2023-03-12T07:15:03.242Z,5.75
2023-03-12T07:16:25.891Z,6.07
2023-03-12T07:17:52.831Z,6.08
2023-03-12T07:19:17.466Z,6.07
2023-03-12T07:20:47.607Z,6.05
2023-03-12T07:22:17.077Z,6.32
2023-03-12T07:23:45.408Z,6.36
2023-03-12T07:25:08.632Z,6.61
2023-03-12T07:26:30.908Z,6.77
2023-03-12T07:27:52.196Z,7.03
2023-03-12T07:29:15.118Z,7.60
2023-03-12T07:30:39.968Z,7.79
2023-03-12T07:32:05.252Z,8.13
2023-03-12T07:33:29.180Z,8.19
2023-03-12T07:34:51.471Z,8.09
2023-03-12T07:36:13.634Z,8.22
2023-03-12T07:37:36.041Z,8.43
2023-03-12T07:39:01.497Z,8.47
2023-03-12T07:40:28.662Z,8.48
2023-03-12T07:41:51.008Z,8.40
2023-03-12T07:43:12.453Z,8.47
2023-03-12T07:44:36.947Z,8.43
2023-03-12T07:45:59.195Z,8.47
2023-03-12T07:47:24.407Z,8.48
2023-03-12T07:48:50.870Z,8.41
2023-03-12T07:50:13.769Z,8.33
2023-03-12T07:51:35.989Z,8.46
2023-03-12T07:52:58.459Z,8.42
2023-03-12T07:54:25.755Z,8.40
2023-03-12T07:55:50.320Z,8.25
2023-03-12T07:57:12.562Z,8.40
2023-03-12T07:58:36.882Z,8.37
2023-03-12T07:59:59.384Z,8.40
2023-03-12T08:01:22.020Z,8.32
2023-03-12T08:02:44.472Z,8.26
2023-03-12T08:04:08.687Z,8.33
2023-03-12T08:05:31.384Z,8.35
2023-03-12T08:06:54.230Z,8.20
2023-03-12T08:08:17.444Z,8.35
2023-03-12T08:09:40.203Z,8.35
2023-03-12T08:11:02.577Z,8.42
2023-03-12T08:12:24.730Z,8.45
2023-03-12T08:13:47.112Z,8.58
2023-03-12T08:15:10.237Z,8.64
2023-03-12T08:16:32.429Z,8.69
2023-03-12T08:17:54.769Z,8.67
2023-03-12T08:19:19.583Z,8.74
2023-03-12T08:20:42.241Z,8.56
2023-03-12T08:22:04.291Z,8.96
2023-03-12T08:23:27.957Z,9.09
2023-03-12T08:24:54.617Z,9.26
2023-03-12T08:26:17.471Z,9.36
2023-03-12T08:27:39.759Z,9.68
2023-03-12T08:29:02.096Z,9.93
2023-03-12T08:30:23.262Z,10.05
2023-03-12T08:32:03.300Z,10.29
2023-03-12T08:33:26.275Z,10.69
2023-03-12T08:34:49.732Z,10.91
2023-03-12T08:36:12.608Z,11.11
2023-03-12T08:37:33.625Z,11.42
2023-03-12T08:38:55.979Z,11.60
2023-03-12T08:40:17.393Z,11.80
2023-03-12T08:41:39.424Z,11.91
2023-03-12T08:43:07.302Z,12.05
2023-03-12T08:44:29.166Z,12.04
2023-03-12T08:45:57.778Z,12.22
2023-03-12T08:47:18.786Z,12.54
2023-03-12T08:48:41.959Z,12.65
2023-03-12T08:50:08.485Z,12.97
2023-03-12T08:51:36.176Z,13.07
2023-03-12T08:53:04.044Z,13.25
2023-03-12T08:54:26.785Z,13.64
2023-03-12T08:55:49.263Z,13.62
2023-03-12T08:57:11.995Z,13.81
2023-03-12T08:58:34.739Z,13.73
2023-03-12T08:59:57.254Z,13.92
2023-03-12T09:01:19.521Z,13.84
2023-03-12T09:02:41.422Z,14.05
2023-03-12T09:04:04.590Z,14.38
2023-03-12T09:05:30.183Z,14.57
2023-03-12T09:06:52.468Z,14.62
2023-03-12T09:08:14.646Z,15.05
2023-03-12T09:09:36.934Z,15.10
2023-03-12T09:10:58.237Z,15.60
2023-03-12T09:12:23.646Z,16.09
2023-03-12T09:14:14.975Z,16.47
2023-03-12T09:15:29.814Z,16.99
2023-03-12T09:16:51.897Z,17.34
2023-03-12T09:18:13.622Z,17.66
2023-03-12T09:19:34.609Z,17.70
2023-03-12T09:20:58.754Z,17.83
2023-03-12T09:22:20.978Z,17.96
2023-03-12T09:23:42.213Z,18.22
2023-03-12T09:25:04.807Z,18.83
2023-03-12T09:26:26.956Z,18.93
2023-03-12T09:27:49.820Z,19.17
2023-03-12T09:29:11.835Z,19.44
2023-03-12T09:30:34.149Z,19.33
2023-03-12T09:31:56.358Z,19.33
2023-03-12T09:33:18.772Z,19.45
2023-03-12T09:34:41.033Z,19.59
2023-03-12T09:36:05.588Z,19.87
2023-03-12T09:37:27.687Z,19.76
2023-03-12T09:38:49.318Z,19.54
2023-03-12T09:40:18.506Z,19.55
2023-03-12T09:41:44.146Z,19.55
2023-03-12T09:43:09.699Z,20.25
2023-03-12T09:44:37.243Z,21.35
2023-03-12T09:46:01.244Z,21.34
2023-03-12T09:47:30.600Z,21.76
2023-03-12T09:48:54.546Z,22.69
2023-03-12T09:50:24.191Z,23.34
2023-03-12T09:51:53.054Z,24.00
2023-03-12T09:53:23.411Z,24.50
2023-03-12T09:54:51.848Z,24.81
2023-03-12T09:56:18.437Z,24.68
2023-03-12T09:57:40.773Z,24.02
2023-03-12T09:59:04.067Z,23.54
2023-03-12T10:00:34.688Z,23.16
2023-03-12T10:02:00.478Z,22.71
2023-03-12T10:03:46.259Z,22.25
2023-03-12T10:05:14.223Z,21.35
2023-03-12T10:06:41.214Z,21.13
2023-03-12T10:08:25.317Z,20.72
2023-03-12T10:10:28.427Z,20.11
2023-03-12T10:11:57.129Z,19.73
2023-03-12T10:13:34.078Z,19.48
2023-03-12T10:15:13.633Z,19.12
2023-03-12T10:16:48.257Z,18.83
2023-03-12T10:18:21.046Z,18.66
2023-03-12T10:20:08.024Z,18.43
2023-03-12T10:21:40.830Z,18.17
2023-03-12T10:23:10.434Z,17.98
2023-03-12T10:24:46.854Z,17.84
2023-03-12T10:26:16.634Z,17.80
2023-03-12T10:27:39.077Z,17.75
2023-03-12T10:29:05.497Z,17.73
2023-03-12T10:30:31.599Z,17.80
2023-03-12T10:31:58.861Z,17.91
2023-03-12T10:33:22.654Z,18.00
2023-03-12T10:34:52.321Z,18.05
2023-03-12T10:36:19.116Z,17.88
2023-03-12T10:37:45.894Z,17.69
2023-03-12T10:39:17.055Z,17.64
2023-03-12T10:40:39.309Z,17.73
2023-03-12T10:42:02.552Z,17.61
2023-03-12T10:43:24.527Z,18.13
2023-03-12T10:44:48.663Z,19.62
2023-03-12T10:46:34.403Z,19.35
2023-03-12T10:48:02.001Z,18.49
2023-03-12T10:49:30.598Z,18.19
2023-03-12T10:51:04.955Z,17.99
2023-03-12T10:52:27.272Z,17.79
2023-03-12T10:53:49.600Z,17.46
2023-03-12T10:55:17.934Z,17.16
2023-03-12T10:56:51.861Z,16.88
2023-03-12T10:58:24.232Z,16.42
2023-03-12T10:59:49.992Z,16.00
2023-03-12T11:01:20.991Z,15.62
2023-03-12T11:02:45.942Z,15.17
2023-03-12T11:04:18.525Z,14.72
2023-03-12T11:05:49.945Z,14.26
2023-03-12T11:07:22.770Z,13.83
2023-03-12T11:09:15.819Z,13.55
2023-03-12T11:10:48.424Z,13.14
2023-03-12T11:12:24.638Z,13.00
2023-03-12T11:13:46.960Z,12.91
2023-03-12T11:15:22.919Z,12.78
2023-03-12T11:16:45.322Z,12.65
2023-03-12T11:18:21.595Z,12.62
2023-03-12T11:19:43.760Z,12.55
2023-03-12T11:21:20.808Z,12.42
2023-03-12T11:22:43.532Z,12.33
2023-03-12T11:24:09.001Z,12.25
2023-03-12T11:25:31.980Z,12.13
2023-03-12T11:27:00.707Z,11.97
2023-03-12T11:28:27.397Z,11.90
2023-03-12T11:29:51.934Z,11.68
2023-03-12T11:31:23.190Z,11.66
2023-03-12T11:32:47.076Z,11.56
2023-03-12T11:34:16.404Z,11.47
2023-03-12T11:35:50.782Z,11.29
2023-03-12T11:37:28.631Z,11.20
2023-03-12T11:39:00.179Z,11.09
2023-03-12T11:40:37.204Z,11.03
2023-03-12T11:42:17.087Z,11.04
2023-03-12T11:43:56.102Z,11.28
2023-03-12T11:45:27.262Z,11.26
2023-03-12T11:47:08.427Z,11.33
2023-03-12T11:48:38.689Z,11.36
2023-03-12T11:50:17.246Z,11.35
2023-03-12T11:51:52.627Z,11.42
2023-03-12T11:53:40.157Z,11.51
2023-03-12T11:55:39.585Z,11.55
2023-03-12T11:57:07.730Z,11.73
2023-03-12T11:58:54.119Z,11.83
2023-03-12T12:00:18.702Z,12.00
2023-03-12T12:01:54.645Z,12.11
2023-03-12T12:03:36.344Z,12.17
2023-03-12T12:05:39.918Z,12.29
2023-03-12T12:07:10.157Z,12.39
2023-03-12T12:08:59.942Z,12.53
2023-03-12T12:10:30.025Z,12.65
2023-03-12T12:12:05.738Z,12.65
2023-03-12T12:13:38.082Z,12.83
2023-03-12T12:15:12.195Z,12.85
2023-03-12T12:16:50.975Z,12.86
2023-03-12T12:18:30.298Z,12.82
2023-03-12T12:20:09.335Z,12.72
2023-03-12T12:21:49.423Z,12.72
2023-03-12T12:23:23.905Z,12.67
2023-03-12T12:25:11.183Z,12.57
2023-03-12T12:26:48.661Z,12.43
2023-03-12T12:28:32.444Z,12.35
2023-03-12T12:30:48.038Z,12.31
2023-03-12T12:32:20.326Z,12.13
2023-03-12T12:34:01.544Z,11.94
2023-03-12T12:35:35.244Z,12.05
2023-03-12T12:37:06.320Z,12.00
2023-03-12T12:38:34.536Z,11.93
2023-03-12T12:40:11.940Z,11.84
2023-03-12T12:41:38.045Z,12.03
2023-03-12T12:43:10.000Z,12.00
2023-03-12T12:44:38.497Z,11.95
2023-03-12T12:46:04.184Z,11.98
2023-03-12T12:47:36.942Z,11.89
2023-03-12T12:49:02.869Z,11.77
2023-03-12T12:50:29.282Z,11.77
2023-03-12T12:51:59.250Z,11.47
2023-03-12T12:53:26.965Z,11.67
2023-03-12T12:54:59.458Z,11.69
2023-03-12T12:56:24.190Z,11.69
2023-03-12T12:57:50.888Z,11.75
2023-03-12T12:59:28.249Z,11.76
2023-03-12T13:00:56.213Z,11.83
2023-03-12T13:02:22.570Z,11.57
2023-03-12T13:03:46.879Z,11.88
2023-03-12T13:05:22.252Z,11.77
2023-03-12T13:07:25.796Z,11.79
2023-03-12T13:09:16.802Z,12.02
2023-03-12T13:10:53.595Z,12.00
2023-03-12T13:12:39.262Z,11.88
2023-03-12T13:14:23.026Z,11.94
2023-03-12T13:15:45.520Z,11.95
2023-03-12T13:17:22.856Z,11.75
2023-03-12T13:18:58.183Z,11.80
2023-03-12T13:20:23.687Z,11.97
2023-03-12T13:22:01.470Z,11.85
2023-03-12T13:23:34.332Z,11.69
2023-03-12T13:25:05.330Z,11.72
2023-03-12T13:26:32.522Z,11.91
2023-03-12T13:28:01.242Z,11.97
2023-03-12T13:29:37.504Z,11.97
2023-03-12T13:31:00.773Z,12.05
2023-03-12T13:33:19.469Z,11.99
2023-03-12T13:34:50.831Z,11.99
2023-03-12T13:36:25.346Z,11.80
2023-03-12T13:38:05.093Z,11.96
2023-03-12T13:39:32.130Z,11.90
2023-03-12T13:41:02.323Z,11.89
2023-03-12T13:42:38.680Z,11.95
2023-03-12T13:44:01.162Z,11.96
2023-03-12T13:45:25.296Z,11.72
2023-03-12T13:46:47.831Z,11.88
2023-03-12T13:48:20.628Z,11.73
2023-03-12T13:49:46.665Z,11.83
2023-03-12T13:51:17.786Z,11.72
2023-03-12T13:52:43.872Z,11.60
2023-03-12T13:54:06.961Z,11.62
2023-03-12T13:55:36.422Z,11.68
2023-03-12T13:57:01.629Z,11.67
2023-03-12T13:58:24.410Z,11.66
2023-03-12T13:59:49.608Z,11.61
2023-03-12T14:01:19.756Z,11.60
2023-03-12T14:02:50.753Z,11.58
2023-03-12T14:04:19.101Z,11.57
2023-03-12T14:05:49.120Z,11.57
2023-03-12T14:07:38.693Z,11.53
2023-03-12T14:09:19.242Z,11.52
2023-03-12T14:10:58.476Z,11.49
2023-03-12T14:12:30.930Z,11.44
2023-03-12T14:14:01.460Z,11.37
2023-03-12T14:15:30.937Z,11.27
2023-03-12T14:16:53.343Z,11.30
2023-03-12T14:18:21.807Z,11.06
2023-03-12T14:19:49.582Z,11.18
2023-03-12T14:21:16.824Z,11.09
2023-03-12T14:22:41.054Z,11.13
2023-03-12T14:24:08.039Z,11.01
2023-03-12T14:25:44.231Z,10.96
2023-03-12T14:27:11.088Z,10.90
2023-03-12T14:28:39.761Z,10.94
2023-03-12T14:30:12.766Z,10.84
2023-03-12T14:31:39.441Z,10.67
2023-03-12T14:33:06.607Z,10.78
2023-03-12T14:34:32.350Z,10.57
2023-03-12T14:36:04.436Z,10.66
2023-03-12T14:37:35.067Z,10.70
2023-03-12T14:39:10.351Z,10.66
2023-03-12T14:40:44.507Z,10.55
2023-03-12T14:42:09.274Z,10.53
2023-03-12T14:43:33.596Z,10.42
2023-03-12T14:44:58.634Z,10.35
2023-03-12T14:46:25.910Z,10.31
2023-03-12T14:47:49.825Z,10.31
2023-03-12T14:49:21.364Z,10.10
2023-03-12T14:50:43.844Z,10.17
2023-03-12T14:52:08.628Z,10.15
2023-03-12T14:53:32.901Z,10.08
2023-03-12T14:54:57.313Z,10.10
2023-03-12T14:56:28.674Z,10.07
2023-03-12T14:57:51.650Z,10.05
2023-03-12T14:59:24.822Z,10.02
2023-03-12T15:00:58.965Z,10.00
2023-03-12T15:02:22.611Z,9.97
2023-03-12T15:03:48.315Z,9.92
2023-03-12T15:05:18.172Z,9.89
2023-03-12T15:06:45.535Z,9.88
2023-03-12T15:08:09.395Z,9.84
2023-03-12T15:09:35.386Z,9.82
2023-03-12T15:10:59.726Z,9.73
2023-03-12T15:12:27.540Z,9.73
2023-03-12T15:13:50.982Z,9.69
2023-03-12T15:15:29.272Z,9.61
2023-03-12T15:16:52.083Z,9.55
2023-03-12T15:18:18.028Z,9.54
2023-03-12T15:19:41.615Z,9.49
2023-03-12T15:21:04.685Z,9.41
2023-03-12T15:22:28.979Z,9.38
2023-03-12T15:23:52.797Z,9.34
2023-03-12T15:25:25.176Z,9.25
2023-03-12T15:26:47.621Z,9.24
2023-03-12T15:28:27.821Z,9.15
2023-03-12T15:29:49.977Z,9.05
2023-03-12T15:31:15.758Z,9.03
2023-03-12T15:32:38.649Z,9.03
2023-03-12T15:34:01.917Z,8.94
2023-03-12T15:35:27.380Z,8.97
2023-03-12T15:36:51.855Z,8.86
2023-03-12T15:38:18.078Z,8.90
2023-03-12T15:39:42.251Z,8.81
2023-03-12T15:41:09.227Z,8.78
2023-03-12T15:42:37.787Z,8.69
2023-03-12T15:44:01.950Z,8.65
2023-03-12T15:45:26.374Z,8.67
2023-03-12T15:46:50.582Z,8.61
2023-03-12T15:48:25.284Z,8.59
2023-03-12T15:49:53.407Z,8.39
2023-03-12T15:51:17.503Z,8.38
2023-03-12T15:52:39.543Z,8.48
2023-03-12T15:54:03.083Z,8.35
2023-03-12T15:55:30.184Z,8.38
2023-03-12T15:56:52.818Z,8.34
2023-03-12T15:58:28.553Z,8.29
2023-03-12T16:00:28.515Z,8.19
2023-03-12T16:01:55.066Z,8.20
2023-03-12T16:03:19.188Z,8.14
2023-03-12T16:04:41.622Z,8.03
2023-03-12T16:06:06.765Z,7.87
2023-03-12T16:07:31.382Z,7.98
2023-03-12T16:08:59.220Z,7.97
2023-03-12T16:10:24.513Z,7.91
2023-03-12T16:11:51.913Z,7.76
2023-03-12T16:13:17.176Z,7.84
2023-03-12T16:14:40.185Z,7.72
2023-03-12T16:16:02.430Z,7.71
2023-03-12T16:17:25.057Z,7.62
2023-03-12T16:18:47.359Z,7.67
2023-03-12T16:20:14.188Z,7.59
2023-03-12T16:21:47.301Z,7.50
2023-03-12T16:23:14.875Z,7.49
2023-03-12T16:24:39.121Z,7.28
2023-03-12T16:26:02.061Z,7.32
2023-03-12T16:27:32.694Z,7.43
2023-03-12T16:28:58.750Z,7.41
2023-03-12T16:30:27.190Z,7.39
2023-03-12T16:31:52.554Z,7.37
2023-03-12T16:33:16.738Z,7.35
2023-03-12T16:34:39.052Z,7.32
2023-03-12T16:36:01.081Z,7.29
2023-03-12T16:37:23.704Z,7.28
2023-03-12T16:38:46.362Z,7.24
2023-03-12T16:40:16.348Z,6.91
2023-03-12T16:41:44.410Z,6.99
2023-03-12T16:43:14.647Z,7.17
2023-03-12T16:44:37.039Z,7.14
2023-03-12T16:45:59.956Z,7.05
2023-03-12T16:47:22.580Z,7.10
2023-03-12T16:48:45.018Z,7.02
2023-03-12T16:50:18.085Z,7.02
2023-03-12T16:51:40.282Z,7.03
2023-03-12T16:53:04.133Z,6.99
2023-03-12T16:54:26.377Z,6.99
2023-03-12T16:55:49.907Z,6.96
2023-03-12T16:57:21.135Z,6.93
2023-03-12T16:58:45.004Z,6.93
2023-03-12T17:00:10.713Z,6.92
2023-03-12T17:01:32.813Z,6.85
2023-03-12T17:03:01.935Z,6.88
2023-03-12T17:04:23.961Z,6.83
2023-03-12T17:05:46.316Z,6.86
2023-03-12T17:07:11.762Z,6.79
2023-03-12T17:08:36.210Z,6.72
2023-03-12T17:10:00.329Z,6.63
2023-03-12T17:11:24.676Z,6.77
2023-03-12T17:12:48.286Z,6.78
2023-03-12T17:14:22.140Z,6.78
2023-03-12T17:15:48.255Z,6.75
2023-03-12T17:17:11.312Z,6.59
2023-03-12T17:18:32.620Z,6.60
2023-03-12T17:20:00.612Z,6.53
2023-03-12T17:21:33.530Z,6.61
2023-03-12T17:23:10.897Z,6.37
2023-03-12T17:24:33.232Z,6.74
2023-03-12T17:25:55.597Z,6.74
2023-03-12T17:27:17.872Z,6.66
2023-03-12T17:28:40.262Z,6.64
2023-03-12T17:30:04.113Z,6.65
2023-03-12T17:31:26.591Z,6.72
2023-03-12T17:32:49.145Z,6.67
2023-03-12T17:34:11.320Z,6.72
2023-03-12T17:35:36.854Z,6.67
2023-03-12T17:36:59.330Z,6.66
2023-03-12T17:38:21.699Z,6.72
2023-03-12T17:39:44.153Z,6.71
2023-03-12T17:41:19.839Z,6.68
2023-03-12T17:42:47.833Z,6.68
2023-03-12T17:44:11.373Z,6.64
2023-03-12T17:45:36.717Z,6.66
2023-03-12T17:46:59.969Z,6.40
2023-03-12T17:48:24.635Z,6.67
2023-03-12T17:49:50.060Z,6.66
2023-03-12T17:51:12.744Z,6.53
2023-03-12T17:52:35.285Z,6.67
2023-03-12T17:53:57.536Z,6.59
2023-03-12T17:55:20.112Z,6.40
2023-03-12T17:56:42.669Z,6.53
2023-03-12T17:58:08.334Z,6.64
2023-03-12T17:59:30.452Z,6.62
2023-03-12T18:00:56.805Z,6.66
2023-03-12T18:02:19.480Z,6.43
2023-03-12T18:03:44.146Z,6.68
2023-03-12T18:05:07.058Z,6.68
2023-03-12T18:06:29.198Z,6.67
2023-03-12T18:07:52.312Z,6.67
2023-03-12T18:09:14.710Z,6.58
2023-03-12T18:10:39.237Z,6.63
2023-03-12T18:12:01.619Z,6.63
2023-03-12T18:13:24.005Z,6.66
2023-03-12T18:14:46.330Z,6.66
2023-03-12T18:16:10.119Z,6.53
2023-03-12T18:17:31.295Z,6.66
2023-03-12T18:18:53.424Z,6.55
2023-03-12T18:20:28.771Z,6.60
2023-03-12T18:21:58.363Z,6.63
2023-03-12T18:23:21.333Z,6.59
2023-03-12T18:24:43.386Z,6.63
2023-03-12T18:26:05.629Z,6.60
2023-03-12T18:27:27.871Z,6.60
2023-03-12T18:28:50.623Z,6.61
2023-03-12T18:30:16.019Z,6.50
2023-03-12T18:31:39.754Z,6.60
2023-03-12T18:33:02.017Z,6.60
2023-03-12T18:34:24.752Z,6.46
2023-03-12T18:35:48.574Z,6.49
2023-03-12T18:37:11.372Z,6.62
2023-03-12T18:38:34.199Z,6.62
2023-03-12T18:39:56.674Z,6.62
2023-03-12T18:41:19.073Z,6.46
2023-03-12T18:42:44.653Z,6.63
2023-03-12T18:44:07.214Z,6.46
2023-03-12T18:45:30.912Z,6.64
2023-03-12T18:46:54.748Z,6.60
2023-03-12T18:48:16.993Z,6.65
2023-03-12T18:49:39.192Z,6.55
2023-03-12T18:51:04.211Z,6.50
2023-03-12T18:52:26.414Z,6.30
2023-03-12T18:53:48.588Z,6.53
2023-03-12T18:55:16.430Z,6.59
2023-03-12T18:56:47.870Z,6.64